sensor_id;sensor_type;location;lat;lon;timestamp;temperature;humidity
24448;DHT22;13348;50.984;5.822;2023-10-13T00:00:25;17.80;99.90
24448;DHT22;13348;50.984;5.822;2023-10-13T00:02:56;17.70;99.90
24448;DHT22;13348;50.984;5.822;2023-10-13T00:05:26;17.70;99.90
24448;DHT22;13348;50.984;5.822;2023-10-13T00:07:54;17.70;99.90
24448;DHT22;13348;50.984;5.822;2023-10-13T00:10:22;17.70;99.90
24448;DHT22;13348;50.984;5.822;2023-10-13T00:12:49;17.80;99.90
24448;DHT22;13348;50.984;5.822;2023-10-13T00:15:17;17.70;99.90
24448;DHT22;13348;50.984;5.822;2023-10-13T00:17:46;17.80;99.90
24448;DHT22;13348;50.984;5.822;2023-10-13T00:20:13;17.80;99.90
24448;DHT22;13348;50.984;5.822;2023-10-13T00:23:02;17.80;99.90
24448;DHT22;13348;50.984;5.822;2023-10-13T00:25:31;17.90;99.90
24448;DHT22;13348;50.984;5.822;2023-10-13T00:28:09;17.90;99.90
24448;DHT22;13348;50.984;5.822;2023-10-13T00:30:36;17.80;99.90
24448;DHT22;13348;50.984;5.822;2023-10-13T00:33:03;17.70;99.90
24448;DHT22;13348;50.984;5.822;2023-10-13T00:35:30;17.70;99.90
24448;DHT22;13348;50.984;5.822;2023-10-13T00:38:04;17.70;99.90
24448;DHT22;13348;50.984;5.822;2023-10-13T00:40:38;17.70;99.90
24448;DHT22;13348;50.984;5.822;2023-10-13T00:43:09;17.70;99.90
24448;DHT22;13348;50.984;5.822;2023-10-13T00:45:54;17.60;99.90
24448;DHT22;13348;50.984;5.822;2023-10-13T00:48:22;17.60;99.90
24448;DHT22;13348;50.984;5.822;2023-10-13T00:50:55;17.70;99.90
24448;DHT22;13348;50.984;5.822;2023-10-13T00:53:26;17.70;99.90
24448;DHT22;13348;50.984;5.822;2023-10-13T00:55:54;17.60;99.90
24448;DHT22;13348;50.984;5.822;2023-10-13T00:58:23;17.70;99.90
24448;DHT22;13348;50.984;5.822;2023-10-13T01:00:50;17.70;99.90
24448;DHT22;13348;50.984;5.822;2023-10-13T01:03:22;17.70;99.90
24448;DHT22;13348;50.984;5.822;2023-10-13T01:05:53;17.60;99.90
24448;DHT22;13348;50.984;5.822;2023-10-13T01:08:31;17.60;99.90
24448;DHT22;13348;50.984;5.822;2023-10-13T01:11:00;17.60;99.90
24448;DHT22;13348;50.984;5.822;2023-10-13T01:13:26;17.60;99.90
24448;DHT22;13348;50.984;5.822;2023-10-13T01:15:56;17.50;99.90
24448;DHT22;13348;50.984;5.822;2023-10-13T01:18:23;17.60;99.90
24448;DHT22;13348;50.984;5.822;2023-10-13T01:20:53;17.60;99.90
24448;DHT22;13348;50.984;5.822;2023-10-13T01:23:26;17.50;99.90
24448;DHT22;13348;50.984;5.822;2023-10-13T01:25:54;17.60;99.90
24448;DHT22;13348;50.984;5.822;2023-10-13T01:28:21;17.70;99.90
24448;DHT22;13348;50.984;5.822;2023-10-13T01:30:47;17.60;99.90
24448;DHT22;13348;50.984;5.822;2023-10-13T01:33:16;17.60;99.90
24448;DHT22;13348;50.984;5.822;2023-10-13T01:35:42;17.50;99.90
24448;DHT22;13348;50.984;5.822;2023-10-13T01:38:13;17.70;99.90
24448;DHT22;13348;50.984;5.822;2023-10-13T01:40:40;17.60;99.90
24448;DHT22;13348;50.984;5.822;2023-10-13T01:43:08;17.60;99.90
24448;DHT22;13348;50.984;5.822;2023-10-13T01:45:36;17.60;99.90
24448;DHT22;13348;50.984;5.822;2023-10-13T01:48:11;17.60;99.90
24448;DHT22;13348;50.984;5.822;2023-10-13T01:50:41;17.50;99.90
24448;DHT22;13348;50.984;5.822;2023-10-13T01:53:13;17.50;99.90
24448;DHT22;13348;50.984;5.822;2023-10-13T01:55:44;17.50;99.90
24448;DHT22;13348;50.984;5.822;2023-10-13T01:58:11;17.60;99.90
24448;DHT22;13348;50.984;5.822;2023-10-13T02:00:41;17.60;99.90
24448;DHT22;13348;50.984;5.822;2023-10-13T02:03:08;17.50;99.90
24448;DHT22;13348;50.984;5.822;2023-10-13T02:05:41;17.50;99.90
24448;DHT22;13348;50.984;5.822;2023-10-13T02:08:13;17.50;99.90
24448;DHT22;13348;50.984;5.822;2023-10-13T02:10:45;17.60;99.90
24448;DHT22;13348;50.984;5.822;2023-10-13T02:13:13;17.60;99.90
24448;DHT22;13348;50.984;5.822;2023-10-13T02:15:41;17.70;99.90
24448;DHT22;13348;50.984;5.822;2023-10-13T02:18:10;17.70;99.90
24448;DHT22;13348;50.984;5.822;2023-10-13T02:20:35;17.60;99.90
24448;DHT22;13348;50.984;5.822;2023-10-13T02:23:09;17.60;99.90
24448;DHT22;13348;50.984;5.822;2023-10-13T02:25:36;17.70;99.90
24448;DHT22;13348;50.984;5.822;2023-10-13T02:28:09;17.70;99.90
24448;DHT22;13348;50.984;5.822;2023-10-13T02:30:39;17.70;99.90
24448;DHT22;13348;50.984;5.822;2023-10-13T02:33:11;17.70;99.90
24448;DHT22;13348;50.984;5.822;2023-10-13T02:35:38;17.70;99.90
24448;DHT22;13348;50.984;5.822;2023-10-13T02:38:09;17.70;99.90
24448;DHT22;13348;50.984;5.822;2023-10-13T02:40:38;17.70;99.90
24448;DHT22;13348;50.984;5.822;2023-10-13T02:43:05;17.70;99.90
24448;DHT22;13348;50.984;5.822;2023-10-13T02:45:33;17.80;99.90
24448;DHT22;13348;50.984;5.822;2023-10-13T02:48:02;17.80;99.90
24448;DHT22;13348;50.984;5.822;2023-10-13T02:50:39;17.80;99.90
24448;DHT22;13348;50.984;5.822;2023-10-13T02:53:08;17.80;99.90
24448;DHT22;13348;50.984;5.822;2023-10-13T02:55:38;17.80;99.90
24448;DHT22;13348;50.984;5.822;2023-10-13T02:58:05;17.80;99.90
24448;DHT22;13348;50.984;5.822;2023-10-13T03:00:35;17.80;99.90
24448;DHT22;13348;50.984;5.822;2023-10-13T03:03:06;17.80;99.90
24448;DHT22;13348;50.984;5.822;2023-10-13T03:05:34;17.80;99.90
24448;DHT22;13348;50.984;5.822;2023-10-13T03:08:04;17.70;99.90
24448;DHT22;13348;50.984;5.822;2023-10-13T03:10:30;17.80;99.90
24448;DHT22;13348;50.984;5.822;2023-10-13T03:12:58;17.80;99.90
24448;DHT22;13348;50.984;5.822;2023-10-13T03:15:24;17.80;99.90
24448;DHT22;13348;50.984;5.822;2023-10-13T03:17:57;17.80;99.90
24448;DHT22;13348;50.984;5.822;2023-10-13T03:20:24;17.90;99.90
24448;DHT22;13348;50.984;5.822;2023-10-13T03:22:57;17.90;99.90
24448;DHT22;13348;50.984;5.822;2023-10-13T03:25:23;17.80;99.90
24448;DHT22;13348;50.984;5.822;2023-10-13T03:27:55;17.90;99.90
24448;DHT22;13348;50.984;5.822;2023-10-13T03:30:30;17.90;99.90
24448;DHT22;13348;50.984;5.822;2023-10-13T03:33:03;17.90;99.90
24448;DHT22;13348;50.984;5.822;2023-10-13T03:35:34;17.90;99.90
24448;DHT22;13348;50.984;5.822;2023-10-13T03:38:08;17.90;99.90
24448;DHT22;13348;50.984;5.822;2023-10-13T03:40:43;17.90;99.90
24448;DHT22;13348;50.984;5.822;2023-10-13T03:43:15;17.90;99.90
24448;DHT22;13348;50.984;5.822;2023-10-13T03:45:47;17.90;99.90
24448;DHT22;13348;50.984;5.822;2023-10-13T03:48:19;17.90;99.90
24448;DHT22;13348;50.984;5.822;2023-10-13T03:50:55;17.90;99.90
24448;DHT22;13348;50.984;5.822;2023-10-13T03:53:28;17.90;99.90
24448;DHT22;13348;50.984;5.822;2023-10-13T03:55:59;17.80;99.90
24448;DHT22;13348;50.984;5.822;2023-10-13T03:58:37;17.70;99.90
24448;DHT22;13348;50.984;5.822;2023-10-13T04:01:07;17.70;99.90
24448;DHT22;13348;50.984;5.822;2023-10-13T04:03:39;17.70;99.90
24448;DHT22;13348;50.984;5.822;2023-10-13T04:06:22;17.80;99.90
24448;DHT22;13348;50.984;5.822;2023-10-13T04:09:09;17.90;99.90
24448;DHT22;13348;50.984;5.822;2023-10-13T04:11:56;17.80;99.90
24448;DHT22;13348;50.984;5.822;2023-10-13T04:14:41;17.80;99.90
24448;DHT22;13348;50.984;5.822;2023-10-13T04:17:25;17.80;99.90
24448;DHT22;13348;50.984;5.822;2023-10-13T04:19:54;17.90;99.90
24448;DHT22;13348;50.984;5.822;2023-10-13T04:22:35;17.80;99.90
24448;DHT22;13348;50.984;5.822;2023-10-13T04:25:17;17.80;99.90
24448;DHT22;13348;50.984;5.822;2023-10-13T04:28:04;17.90;99.90
24448;DHT22;13348;50.984;5.822;2023-10-13T04:30:41;17.90;99.90
24448;DHT22;13348;50.984;5.822;2023-10-13T04:33:23;17.90;99.90
24448;DHT22;13348;50.984;5.822;2023-10-13T04:36:10;18.00;99.90
24448;DHT22;13348;50.984;5.822;2023-10-13T04:38:43;18.00;99.90
24448;DHT22;13348;50.984;5.822;2023-10-13T04:41:22;18.00;99.90
24448;DHT22;13348;50.984;5.822;2023-10-13T04:43:49;17.90;99.90
24448;DHT22;13348;50.984;5.822;2023-10-13T04:46:21;17.90;99.90
24448;DHT22;13348;50.984;5.822;2023-10-13T04:49:01;18.00;99.90
24448;DHT22;13348;50.984;5.822;2023-10-13T04:51:37;18.00;99.90
24448;DHT22;13348;50.984;5.822;2023-10-13T04:54:24;18.10;99.90
24448;DHT22;13348;50.984;5.822;2023-10-13T04:56:59;18.20;99.90
24448;DHT22;13348;50.984;5.822;2023-10-13T04:59:49;18.10;99.90
24448;DHT22;13348;50.984;5.822;2023-10-13T05:02:33;18.00;99.90
24448;DHT22;13348;50.984;5.822;2023-10-13T05:05:18;18.10;99.90
24448;DHT22;13348;50.984;5.822;2023-10-13T05:08:12;18.30;99.90
24448;DHT22;13348;50.984;5.822;2023-10-13T05:10:57;18.10;99.90
24448;DHT22;13348;50.984;5.822;2023-10-13T05:13:55;18.20;99.90
24448;DHT22;13348;50.984;5.822;2023-10-13T05:16:40;18.20;99.90
24448;DHT22;13348;50.984;5.822;2023-10-13T05:19:24;18.20;99.90
24448;DHT22;13348;50.984;5.822;2023-10-13T05:22:08;18.10;99.90
24448;DHT22;13348;50.984;5.822;2023-10-13T05:24:54;18.10;99.90
24448;DHT22;13348;50.984;5.822;2023-10-13T05:27:38;18.10;99.90
24448;DHT22;13348;50.984;5.822;2023-10-13T05:30:22;18.20;99.90
24448;DHT22;13348;50.984;5.822;2023-10-13T05:33:07;18.20;99.90
24448;DHT22;13348;50.984;5.822;2023-10-13T05:35:51;18.10;99.90
24448;DHT22;13348;50.984;5.822;2023-10-13T05:38:35;18.00;99.90
24448;DHT22;13348;50.984;5.822;2023-10-13T05:41:21;18.10;99.90
24448;DHT22;13348;50.984;5.822;2023-10-13T05:44:06;18.10;99.90
24448;DHT22;13348;50.984;5.822;2023-10-13T05:46:50;18.20;99.90
24448;DHT22;13348;50.984;5.822;2023-10-13T05:49:48;18.30;99.90
24448;DHT22;13348;50.984;5.822;2023-10-13T05:52:18;18.30;99.90
24448;DHT22;13348;50.984;5.822;2023-10-13T05:55:05;18.20;99.90
24448;DHT22;13348;50.984;5.822;2023-10-13T05:57:51;18.20;99.90
24448;DHT22;13348;50.984;5.822;2023-10-13T06:00:39;18.20;99.90
24448;DHT22;13348;50.984;5.822;2023-10-13T06:03:24;18.20;99.90
24448;DHT22;13348;50.984;5.822;2023-10-13T06:06:08;18.10;99.90
24448;DHT22;13348;50.984;5.822;2023-10-13T06:08:53;18.10;99.90
24448;DHT22;13348;50.984;5.822;2023-10-13T06:11:37;18.10;99.90
24448;DHT22;13348;50.984;5.822;2023-10-13T06:14:22;18.10;99.90
24448;DHT22;13348;50.984;5.822;2023-10-13T06:17:07;18.00;99.90
24448;DHT22;13348;50.984;5.822;2023-10-13T06:19:51;18.00;99.90
24448;DHT22;13348;50.984;5.822;2023-10-13T06:22:35;18.10;99.90
24448;DHT22;13348;50.984;5.822;2023-10-13T06:25:19;18.20;99.90
24448;DHT22;13348;50.984;5.822;2023-10-13T06:28:03;18.20;99.90
24448;DHT22;13348;50.984;5.822;2023-10-13T06:30:54;18.20;99.90
24448;DHT22;13348;50.984;5.822;2023-10-13T06:33:23;18.20;99.90
24448;DHT22;13348;50.984;5.822;2023-10-13T06:35:55;18.20;99.90
24448;DHT22;13348;50.984;5.822;2023-10-13T06:38:22;18.30;99.90
24448;DHT22;13348;50.984;5.822;2023-10-13T06:40:49;18.30;99.90
24448;DHT22;13348;50.984;5.822;2023-10-13T06:43:17;18.40;99.90
24448;DHT22;13348;50.984;5.822;2023-10-13T06:45:47;18.40;99.90
24448;DHT22;13348;50.984;5.822;2023-10-13T06:48:25;18.50;99.90
24448;DHT22;13348;50.984;5.822;2023-10-13T06:50:52;18.60;99.90
24448;DHT22;13348;50.984;5.822;2023-10-13T06:53:21;18.70;99.90
24448;DHT22;13348;50.984;5.822;2023-10-13T06:55:48;18.70;99.90
24448;DHT22;13348;50.984;5.822;2023-10-13T06:58:18;18.80;99.90
24448;DHT22;13348;50.984;5.822;2023-10-13T07:00:49;18.80;99.90
24448;DHT22;13348;50.984;5.822;2023-10-13T07:03:20;18.80;99.90
24448;DHT22;13348;50.984;5.822;2023-10-13T07:05:48;18.80;99.90
24448;DHT22;13348;50.984;5.822;2023-10-13T07:08:16;18.80;99.90
24448;DHT22;13348;50.984;5.822;2023-10-13T07:10:48;18.90;99.90
24448;DHT22;13348;50.984;5.822;2023-10-13T07:13:27;18.90;99.90
24448;DHT22;13348;50.984;5.822;2023-10-13T07:15:54;18.90;99.90
24448;DHT22;13348;50.984;5.822;2023-10-13T07:18:27;19.00;99.90
24448;DHT22;13348;50.984;5.822;2023-10-13T07:21:03;19.10;99.90
24448;DHT22;13348;50.984;5.822;2023-10-13T07:23:35;19.00;99.90
24448;DHT22;13348;50.984;5.822;2023-10-13T07:26:02;19.10;99.90
24448;DHT22;13348;50.984;5.822;2023-10-13T07:28:29;19.10;99.90
24448;DHT22;13348;50.984;5.822;2023-10-13T07:31:01;19.10;99.90
24448;DHT22;13348;50.984;5.822;2023-10-13T07:33:38;19.20;99.90
24448;DHT22;13348;50.984;5.822;2023-10-13T07:36:08;19.20;99.90
24448;DHT22;13348;50.984;5.822;2023-10-13T07:38:43;19.30;99.90
24448;DHT22;13348;50.984;5.822;2023-10-13T07:41:14;19.30;99.90
24448;DHT22;13348;50.984;5.822;2023-10-13T07:43:41;19.40;99.90
24448;DHT22;13348;50.984;5.822;2023-10-13T07:46:10;19.40;99.90
24448;DHT22;13348;50.984;5.822;2023-10-13T07:48:37;19.50;99.90
24448;DHT22;13348;50.984;5.822;2023-10-13T07:51:06;19.50;99.90
24448;DHT22;13348;50.984;5.822;2023-10-13T07:53:39;19.60;99.90
24448;DHT22;13348;50.984;5.822;2023-10-13T07:56:06;19.70;99.90
24448;DHT22;13348;50.984;5.822;2023-10-13T07:58:34;19.80;99.90
24448;DHT22;13348;50.984;5.822;2023-10-13T08:01:11;19.90;99.90
24448;DHT22;13348;50.984;5.822;2023-10-13T08:03:42;20.00;99.90
24448;DHT22;13348;50.984;5.822;2023-10-13T08:06:13;20.10;99.90
24448;DHT22;13348;50.984;5.822;2023-10-13T08:08:46;20.10;99.90
24448;DHT22;13348;50.984;5.822;2023-10-13T08:11:16;20.20;99.90
24448;DHT22;13348;50.984;5.822;2023-10-13T08:13:52;20.20;99.90
24448;DHT22;13348;50.984;5.822;2023-10-13T08:16:21;20.30;99.90
24448;DHT22;13348;50.984;5.822;2023-10-13T08:18:48;20.40;99.90
24448;DHT22;13348;50.984;5.822;2023-10-13T08:21:15;20.50;99.90
24448;DHT22;13348;50.984;5.822;2023-10-13T08:23:50;20.60;99.90
24448;DHT22;13348;50.984;5.822;2023-10-13T08:26:32;20.60;99.90
24448;DHT22;13348;50.984;5.822;2023-10-13T08:29:12;20.60;99.90
24448;DHT22;13348;50.984;5.822;2023-10-13T08:32:11;20.70;99.90
24448;DHT22;13348;50.984;5.822;2023-10-13T08:35:01;20.90;99.90
24448;DHT22;13348;50.984;5.822;2023-10-13T08:37:48;21.00;99.90
24448;DHT22;13348;50.984;5.822;2023-10-13T08:40:28;21.30;99.90
24448;DHT22;13348;50.984;5.822;2023-10-13T08:43:31;21.50;99.90
24448;DHT22;13348;50.984;5.822;2023-10-13T08:46:08;21.50;99.90
24448;DHT22;13348;50.984;5.822;2023-10-13T08:48:35;21.50;99.90
24448;DHT22;13348;50.984;5.822;2023-10-13T08:51:02;21.50;99.90
24448;DHT22;13348;50.984;5.822;2023-10-13T08:53:46;21.70;99.90
24448;DHT22;13348;50.984;5.822;2023-10-13T08:56:18;21.80;99.90
24448;DHT22;13348;50.984;5.822;2023-10-13T08:58:59;21.70;99.90
24448;DHT22;13348;50.984;5.822;2023-10-13T09:01:31;21.50;99.90
24448;DHT22;13348;50.984;5.822;2023-10-13T09:04:05;21.40;99.90
24448;DHT22;13348;50.984;5.822;2023-10-13T09:06:47;21.50;99.90
24448;DHT22;13348;50.984;5.822;2023-10-13T09:09:26;21.70;99.90
24448;DHT22;13348;50.984;5.822;2023-10-13T09:11:54;22.10;99.90
24448;DHT22;13348;50.984;5.822;2023-10-13T09:14:33;22.30;99.90
24448;DHT22;13348;50.984;5.822;2023-10-13T09:17:01;22.50;99.90
24448;DHT22;13348;50.984;5.822;2023-10-13T09:19:50;22.50;99.90
24448;DHT22;13348;50.984;5.822;2023-10-13T09:22:21;22.30;99.90
24448;DHT22;13348;50.984;5.822;2023-10-13T09:24:57;22.50;99.90
24448;DHT22;13348;50.984;5.822;2023-10-13T09:27:27;22.70;99.90
24448;DHT22;13348;50.984;5.822;2023-10-13T09:29:55;22.60;99.90
24448;DHT22;13348;50.984;5.822;2023-10-13T09:32:21;22.50;99.90
24448;DHT22;13348;50.984;5.822;2023-10-13T09:34:47;22.50;99.90
24448;DHT22;13348;50.984;5.822;2023-10-13T09:37:18;22.60;99.90
24448;DHT22;13348;50.984;5.822;2023-10-13T09:39:46;22.50;99.90
24448;DHT22;13348;50.984;5.822;2023-10-13T09:42:19;22.60;99.90
24448;DHT22;13348;50.984;5.822;2023-10-13T09:44:47;22.60;99.90
24448;DHT22;13348;50.984;5.822;2023-10-13T09:47:19;22.70;99.90
24448;DHT22;13348;50.984;5.822;2023-10-13T09:49:50;23.10;99.90
24448;DHT22;13348;50.984;5.822;2023-10-13T09:52:23;23.10;99.90
24448;DHT22;13348;50.984;5.822;2023-10-13T09:55:03;23.80;99.90
24448;DHT22;13348;50.984;5.822;2023-10-13T09:57:35;23.80;99.90
24448;DHT22;13348;50.984;5.822;2023-10-13T10:00:09;23.70;99.90
24448;DHT22;13348;50.984;5.822;2023-10-13T10:02:55;23.80;99.90
24448;DHT22;13348;50.984;5.822;2023-10-13T10:05:24;23.40;99.90
24448;DHT22;13348;50.984;5.822;2023-10-13T10:07:55;23.10;99.90
24448;DHT22;13348;50.984;5.822;2023-10-13T10:10:22;23.10;99.90
24448;DHT22;13348;50.984;5.822;2023-10-13T10:12:52;23.40;99.90
24448;DHT22;13348;50.984;5.822;2023-10-13T10:15:24;23.50;99.90
24448;DHT22;13348;50.984;5.822;2023-10-13T10:17:56;23.40;99.90
24448;DHT22;13348;50.984;5.822;2023-10-13T10:20:30;24.00;99.90
24448;DHT22;13348;50.984;5.822;2023-10-13T10:23:05;24.50;99.90
24448;DHT22;13348;50.984;5.822;2023-10-13T10:25:35;25.00;99.90
24448;DHT22;13348;50.984;5.822;2023-10-13T10:28:04;24.60;99.90
24448;DHT22;13348;50.984;5.822;2023-10-13T10:30:36;23.90;99.90
24448;DHT22;13348;50.984;5.822;2023-10-13T10:33:05;23.60;99.90
24448;DHT22;13348;50.984;5.822;2023-10-13T10:35:37;23.50;99.90
24448;DHT22;13348;50.984;5.822;2023-10-13T10:38:08;23.40;99.90
24448;DHT22;13348;50.984;5.822;2023-10-13T10:40:53;23.30;99.90
24448;DHT22;13348;50.984;5.822;2023-10-13T10:43:26;23.30;99.90
24448;DHT22;13348;50.984;5.822;2023-10-13T10:45:56;23.30;99.90
24448;DHT22;13348;50.984;5.822;2023-10-13T10:48:26;23.30;99.90
24448;DHT22;13348;50.984;5.822;2023-10-13T10:51:00;23.20;99.90
24448;DHT22;13348;50.984;5.822;2023-10-13T10:53:33;23.00;99.90
24448;DHT22;13348;50.984;5.822;2023-10-13T10:56:05;23.10;99.90
24448;DHT22;13348;50.984;5.822;2023-10-13T10:58:34;23.10;99.90
24448;DHT22;13348;50.984;5.822;2023-10-13T11:01:10;23.10;99.90
24448;DHT22;13348;50.984;5.822;2023-10-13T11:03:52;23.10;99.90
24448;DHT22;13348;50.984;5.822;2023-10-13T11:06:20;23.40;99.90
24448;DHT22;13348;50.984;5.822;2023-10-13T11:08:50;23.30;99.90
24448;DHT22;13348;50.984;5.822;2023-10-13T11:11:29;23.30;99.90
24448;DHT22;13348;50.984;5.822;2023-10-13T11:14:01;23.40;99.90
24448;DHT22;13348;50.984;5.822;2023-10-13T11:16:47;23.40;99.90
24448;DHT22;13348;50.984;5.822;2023-10-13T11:19:19;23.40;99.90
24448;DHT22;13348;50.984;5.822;2023-10-13T11:21:53;23.50;99.90
24448;DHT22;13348;50.984;5.822;2023-10-13T11:24:21;23.60;99.90
24448;DHT22;13348;50.984;5.822;2023-10-13T11:26:48;23.50;99.90
24448;DHT22;13348;50.984;5.822;2023-10-13T11:29:16;23.50;99.90
24448;DHT22;13348;50.984;5.822;2023-10-13T11:31:45;23.40;99.90
24448;DHT22;13348;50.984;5.822;2023-10-13T11:34:18;23.40;99.90
24448;DHT22;13348;50.984;5.822;2023-10-13T11:36:45;23.40;99.90
24448;DHT22;13348;50.984;5.822;2023-10-13T11:39:12;23.50;99.90
24448;DHT22;13348;50.984;5.822;2023-10-13T11:41:44;23.50;99.90
24448;DHT22;13348;50.984;5.822;2023-10-13T11:44:20;23.60;99.90
24448;DHT22;13348;50.984;5.822;2023-10-13T11:46:57;23.80;99.90
24448;DHT22;13348;50.984;5.822;2023-10-13T11:49:42;23.90;99.90
24448;DHT22;13348;50.984;5.822;2023-10-13T11:52:09;24.00;99.90
24448;DHT22;13348;50.984;5.822;2023-10-13T11:54:45;23.80;99.90
24448;DHT22;13348;50.984;5.822;2023-10-13T11:57:12;23.80;99.90
24448;DHT22;13348;50.984;5.822;2023-10-13T11:59:42;23.50;99.90
24448;DHT22;13348;50.984;5.822;2023-10-13T12:02:19;23.30;99.90
24448;DHT22;13348;50.984;5.822;2023-10-13T12:05:05;23.40;99.90
24448;DHT22;13348;50.984;5.822;2023-10-13T12:07:38;23.30;99.90
24448;DHT22;13348;50.984;5.822;2023-10-13T12:10:17;23.40;99.90
24448;DHT22;13348;50.984;5.822;2023-10-13T12:13:00;23.40;99.90
24448;DHT22;13348;50.984;5.822;2023-10-13T12:15:33;23.40;99.90
24448;DHT22;13348;50.984;5.822;2023-10-13T12:18:14;23.50;99.90
24448;DHT22;13348;50.984;5.822;2023-10-13T12:20:43;23.60;99.90
24448;DHT22;13348;50.984;5.822;2023-10-13T12:23:12;23.50;99.90
24448;DHT22;13348;50.984;5.822;2023-10-13T12:25:43;23.50;99.90
24448;DHT22;13348;50.984;5.822;2023-10-13T12:28:26;23.50;99.90
24448;DHT22;13348;50.984;5.822;2023-10-13T12:30:54;23.50;99.90
24448;DHT22;13348;50.984;5.822;2023-10-13T12:33:23;23.50;99.90
24448;DHT22;13348;50.984;5.822;2023-10-13T12:35:59;23.60;99.90
24448;DHT22;13348;50.984;5.822;2023-10-13T12:38:40;23.50;99.90
24448;DHT22;13348;50.984;5.822;2023-10-13T12:41:36;23.80;99.90
24448;DHT22;13348;50.984;5.822;2023-10-13T12:44:20;24.00;99.90
24448;DHT22;13348;50.984;5.822;2023-10-13T12:47:05;24.10;99.90
24448;DHT22;13348;50.984;5.822;2023-10-13T12:49:49;23.80;99.90
24448;DHT22;13348;50.984;5.822;2023-10-13T12:52:24;24.20;99.90
24448;DHT22;13348;50.984;5.822;2023-10-13T12:54:52;24.40;99.90
24448;DHT22;13348;50.984;5.822;2023-10-13T12:57:31;24.10;99.90
24448;DHT22;13348;50.984;5.822;2023-10-13T12:59:58;24.00;99.90
24448;DHT22;13348;50.984;5.822;2023-10-13T13:02:27;23.80;99.90
24448;DHT22;13348;50.984;5.822;2023-10-13T13:04:55;23.70;99.90
24448;DHT22;13348;50.984;5.822;2023-10-13T13:07:32;23.50;99.90
24448;DHT22;13348;50.984;5.822;2023-10-13T13:10:09;23.40;99.90
24448;DHT22;13348;50.984;5.822;2023-10-13T13:12:37;23.30;99.90
24448;DHT22;13348;50.984;5.822;2023-10-13T13:15:04;23.30;99.90
24448;DHT22;13348;50.984;5.822;2023-10-13T13:17:34;23.40;99.90
24448;DHT22;13348;50.984;5.822;2023-10-13T13:20:01;23.50;99.90
24448;DHT22;13348;50.984;5.822;2023-10-13T13:22:38;23.40;99.90
24448;DHT22;13348;50.984;5.822;2023-10-13T13:25:05;23.40;99.90
24448;DHT22;13348;50.984;5.822;2023-10-13T13:27:34;23.30;99.90
24448;DHT22;13348;50.984;5.822;2023-10-13T13:30:02;23.20;99.90
24448;DHT22;13348;50.984;5.822;2023-10-13T13:32:37;23.20;99.90
24448;DHT22;13348;50.984;5.822;2023-10-13T13:35:06;23.20;99.90
24448;DHT22;13348;50.984;5.822;2023-10-13T13:37:40;23.30;99.90
24448;DHT22;13348;50.984;5.822;2023-10-13T13:40:10;23.30;99.90
24448;DHT22;13348;50.984;5.822;2023-10-13T13:42:41;23.30;99.90
24448;DHT22;13348;50.984;5.822;2023-10-13T13:45:12;23.20;99.90
24448;DHT22;13348;50.984;5.822;2023-10-13T13:47:47;23.20;99.90
24448;DHT22;13348;50.984;5.822;2023-10-13T13:50:19;23.10;99.90
24448;DHT22;13348;50.984;5.822;2023-10-13T13:52:52;23.00;99.90
24448;DHT22;13348;50.984;5.822;2023-10-13T13:55:21;23.00;99.90
24448;DHT22;13348;50.984;5.822;2023-10-13T13:57:48;22.90;99.90
24448;DHT22;13348;50.984;5.822;2023-10-13T14:00:16;22.80;99.90
24448;DHT22;13348;50.984;5.822;2023-10-13T14:02:48;22.70;99.90
24448;DHT22;13348;50.984;5.822;2023-10-13T14:05:15;22.60;99.90
24448;DHT22;13348;50.984;5.822;2023-10-13T14:07:43;22.60;99.90
24448;DHT22;13348;50.984;5.822;2023-10-13T14:10:16;22.60;99.90
24448;DHT22;13348;50.984;5.822;2023-10-13T14:12:57;22.60;99.90
24448;DHT22;13348;50.984;5.822;2023-10-13T14:15:32;22.60;99.90
24448;DHT22;13348;50.984;5.822;2023-10-13T14:18:05;22.50;99.90
24448;DHT22;13348;50.984;5.822;2023-10-13T14:20:32;22.50;99.90
24448;DHT22;13348;50.984;5.822;2023-10-13T14:23:05;22.50;99.90
24448;DHT22;13348;50.984;5.822;2023-10-13T14:25:34;22.50;99.90
24448;DHT22;13348;50.984;5.822;2023-10-13T14:28:03;22.40;99.90
24448;DHT22;13348;50.984;5.822;2023-10-13T14:30:30;22.30;99.90
24448;DHT22;13348;50.984;5.822;2023-10-13T14:32:57;22.30;99.90
24448;DHT22;13348;50.984;5.822;2023-10-13T14:35:24;22.30;99.90
24448;DHT22;13348;50.984;5.822;2023-10-13T14:37:52;22.30;99.90
24448;DHT22;13348;50.984;5.822;2023-10-13T14:40:19;22.30;99.90
24448;DHT22;13348;50.984;5.822;2023-10-13T14:42:48;22.20;99.90
24448;DHT22;13348;50.984;5.822;2023-10-13T14:45:15;22.20;99.90
24448;DHT22;13348;50.984;5.822;2023-10-13T14:47:43;22.20;99.90
24448;DHT22;13348;50.984;5.822;2023-10-13T14:50:10;22.20;99.90
24448;DHT22;13348;50.984;5.822;2023-10-13T14:52:45;22.20;99.90
24448;DHT22;13348;50.984;5.822;2023-10-13T14:55:12;22.20;99.90
24448;DHT22;13348;50.984;5.822;2023-10-13T14:57:45;22.10;99.90
24448;DHT22;13348;50.984;5.822;2023-10-13T15:00:14;22.20;99.90
24448;DHT22;13348;50.984;5.822;2023-10-13T15:02:50;22.10;99.90
24448;DHT22;13348;50.984;5.822;2023-10-13T15:05:18;22.10;99.90
24448;DHT22;13348;50.984;5.822;2023-10-13T15:07:45;22.00;99.90
24448;DHT22;13348;50.984;5.822;2023-10-13T15:10:12;22.00;99.90
24448;DHT22;13348;50.984;5.822;2023-10-13T15:12:41;22.10;99.90
24448;DHT22;13348;50.984;5.822;2023-10-13T15:15:08;22.10;99.90
24448;DHT22;13348;50.984;5.822;2023-10-13T15:17:40;22.00;99.90
24448;DHT22;13348;50.984;5.822;2023-10-13T15:20:07;21.80;99.90
24448;DHT22;13348;50.984;5.822;2023-10-13T15:22:41;21.60;99.90
24448;DHT22;13348;50.984;5.822;2023-10-13T15:25:08;21.50;99.90
24448;DHT22;13348;50.984;5.822;2023-10-13T15:27:46;21.60;99.90
24448;DHT22;13348;50.984;5.822;2023-10-13T15:30:21;21.70;99.90
24448;DHT22;13348;50.984;5.822;2023-10-13T15:32:51;21.70;99.90
24448;DHT22;13348;50.984;5.822;2023-10-13T15:35:19;21.60;99.90
24448;DHT22;13348;50.984;5.822;2023-10-13T15:37:49;21.60;99.90
24448;DHT22;13348;50.984;5.822;2023-10-13T15:40:17;21.80;99.90
24448;DHT22;13348;50.984;5.822;2023-10-13T15:42:44;21.80;99.90
24448;DHT22;13348;50.984;5.822;2023-10-13T15:45:11;21.70;99.90
24448;DHT22;13348;50.984;5.822;2023-10-13T15:47:43;21.50;99.90
24448;DHT22;13348;50.984;5.822;2023-10-13T15:50:13;21.60;99.90
24448;DHT22;13348;50.984;5.822;2023-10-13T15:52:45;21.60;99.90
24448;DHT22;13348;50.984;5.822;2023-10-13T15:55:13;21.40;99.90
24448;DHT22;13348;50.984;5.822;2023-10-13T15:57:40;21.30;99.90
24448;DHT22;13348;50.984;5.822;2023-10-13T16:00:07;21.30;99.90
24448;DHT22;13348;50.984;5.822;2023-10-13T16:02:52;21.40;99.90
24448;DHT22;13348;50.984;5.822;2023-10-13T16:05:21;21.40;99.90
24448;DHT22;13348;50.984;5.822;2023-10-13T16:07:50;21.40;99.90